createdAt,value
2023-05-13T00:01:50.413Z,10.57
2023-05-13T00:04:17.030Z,10.80
2023-05-13T00:06:43.550Z,14.43
2023-05-13T00:09:10.127Z,14.43
2023-05-13T00:11:36.708Z,14.03
2023-05-13T00:14:03.904Z,12.70
2023-05-13T00:16:30.591Z,13.40
2023-05-13T00:18:57.257Z,12.17
2023-05-13T00:21:23.905Z,10.80
2023-05-13T00:23:50.620Z,12.07
2023-05-13T00:26:17.260Z,9.93
2023-05-13T00:28:47.131Z,9.60
2023-05-13T00:31:13.736Z,8.40
2023-05-13T00:33:40.320Z,9.63
2023-05-13T00:36:07.740Z,9.60
2023-05-13T00:38:34.414Z,8.40
2023-05-13T00:41:02.680Z,7.80
2023-05-13T00:43:29.347Z,8.17
2023-05-13T00:45:56.034Z,9.97
2023-05-13T00:48:24.903Z,8.07
2023-05-13T00:50:51.461Z,11.27
2023-05-13T00:53:18.197Z,8.17
2023-05-13T00:55:45.551Z,7.63
2023-05-13T00:58:12.292Z,7.37
2023-05-13T01:00:48.233Z,6.93
2023-05-13T01:03:20.930Z,7.20
2023-05-13T01:05:53.600Z,7.77
2023-05-13T01:08:40.979Z,6.43
2023-05-13T01:11:11.826Z,6.97
2023-05-13T01:13:43.246Z,6.37
2023-05-13T01:16:13.630Z,6.33
2023-05-13T01:18:43.201Z,6.70
2023-05-13T01:21:09.962Z,5.97
2023-05-13T01:23:36.448Z,6.67
2023-05-13T01:26:04.298Z,6.97
2023-05-13T01:28:33.142Z,6.60
2023-05-13T01:31:02.615Z,7.13
2023-05-13T01:33:29.979Z,6.67
2023-05-13T01:35:57.049Z,6.43
2023-05-13T01:38:24.767Z,6.60
2023-05-13T01:40:54.946Z,7.67
2023-05-13T01:43:21.596Z,11.50
2023-05-13T01:45:48.715Z,6.67
2023-05-13T01:48:15.429Z,6.53
2023-05-13T01:50:45.409Z,6.97
2023-05-13T01:53:12.269Z,6.20
2023-05-13T01:55:39.074Z,6.07
2023-05-13T01:58:05.872Z,6.23
2023-05-13T02:00:32.520Z,6.10
2023-05-13T02:02:59.186Z,6.60
2023-05-13T02:05:25.903Z,6.63
2023-05-13T02:07:53.699Z,5.97
2023-05-13T02:10:20.407Z,6.90
2023-05-13T02:12:47.035Z,6.73
2023-05-13T02:15:14.163Z,7.10
2023-05-13T02:17:40.763Z,6.40
2023-05-13T02:20:07.690Z,9.27
2023-05-13T02:22:35.368Z,7.20
2023-05-13T02:25:03.853Z,6.53
2023-05-13T02:27:30.493Z,6.60
2023-05-13T02:29:57.032Z,7.23
2023-05-13T02:32:23.889Z,7.53
2023-05-13T02:34:50.439Z,7.30
2023-05-13T02:37:17.301Z,6.60
2023-05-13T02:39:52.726Z,7.13
2023-05-13T02:42:19.281Z,6.80
2023-05-13T02:44:46.005Z,7.90
2023-05-13T02:47:15.396Z,9.67
2023-05-13T02:49:42.003Z,7.50
2023-05-13T02:52:08.577Z,6.50
2023-05-13T02:54:36.592Z,6.37
2023-05-13T02:57:03.240Z,6.63
2023-05-13T02:59:29.846Z,7.07
2023-05-13T03:01:57.232Z,7.23
2023-05-13T03:04:24.245Z,7.40
2023-05-13T03:06:51.233Z,7.37
2023-05-13T03:09:17.991Z,8.50
2023-05-13T03:11:44.513Z,7.87
2023-05-13T03:14:11.100Z,7.00
2023-05-13T03:16:38.348Z,7.00
2023-05-13T03:19:05.019Z,6.13
2023-05-13T03:21:31.632Z,6.93
2023-05-13T03:23:59.043Z,7.17
2023-05-13T03:26:26.825Z,6.43
2023-05-13T03:28:54.272Z,7.50
2023-05-13T03:31:21.593Z,9.07
2023-05-13T03:33:48.259Z,7.20
2023-05-13T03:36:14.875Z,7.13
2023-05-13T03:38:41.452Z,7.70
2023-05-13T03:41:08.284Z,7.27
2023-05-13T03:43:35.280Z,8.00
2023-05-13T03:46:07.275Z,8.97
2023-05-13T03:48:33.927Z,10.30
2023-05-13T03:51:02.172Z,8.20
2023-05-13T03:53:29.358Z,8.90
2023-05-13T03:55:55.904Z,8.53
2023-05-13T03:58:22.919Z,8.17
2023-05-13T04:00:49.624Z,8.57
2023-05-13T04:03:16.408Z,8.53
2023-05-13T04:05:43.457Z,8.70
2023-05-13T04:08:11.334Z,9.32
2023-05-13T04:10:37.959Z,8.23
2023-05-13T04:13:04.619Z,9.57
2023-05-13T04:15:34.080Z,8.83
2023-05-13T04:18:00.782Z,9.70
2023-05-13T04:20:29.088Z,8.57
2023-05-13T04:22:55.665Z,9.30
2023-05-13T04:25:22.253Z,9.30
2023-05-13T04:27:48.929Z,9.87
2023-05-13T04:30:23.278Z,10.50
2023-05-13T04:32:50.003Z,9.07
2023-05-13T04:35:16.657Z,8.03
2023-05-13T04:37:45.937Z,8.80
2023-05-13T04:40:15.319Z,8.30
2023-05-13T04:42:42.092Z,8.50
2023-05-13T04:45:08.998Z,7.87
2023-05-13T04:47:38.139Z,7.73
2023-05-13T04:50:05.714Z,7.77
2023-05-13T04:52:32.936Z,8.03
2023-05-13T04:54:59.865Z,8.30
2023-05-13T04:57:27.959Z,10.80
2023-05-13T04:59:54.517Z,8.87
2023-05-13T05:02:21.169Z,10.87
2023-05-13T05:04:49.378Z,7.73
2023-05-13T05:07:16.191Z,7.80
2023-05-13T05:09:42.763Z,8.07
2023-05-13T05:12:09.918Z,7.97
2023-05-13T05:14:39.703Z,8.63
2023-05-13T05:17:06.658Z,7.27
2023-05-13T05:19:33.597Z,8.10
2023-05-13T05:22:00.314Z,7.70
2023-05-13T05:24:26.915Z,7.50
2023-05-13T05:26:53.460Z,7.67
2023-05-13T05:29:20.020Z,10.93
2023-05-13T05:31:46.567Z,8.17
2023-05-13T05:34:14.071Z,9.13
2023-05-13T05:36:42.379Z,9.73
2023-05-13T05:39:12.784Z,10.60
2023-05-13T05:41:39.333Z,8.73
2023-05-13T05:44:06.333Z,8.83
2023-05-13T05:46:33.237Z,8.43
2023-05-13T05:49:02.494Z,8.20
2023-05-13T05:51:31.230Z,7.53
2023-05-13T05:53:59.874Z,7.33
2023-05-13T05:56:26.489Z,8.02
2023-05-13T05:58:53.049Z,8.00
2023-05-13T06:01:19.805Z,6.83
2023-05-13T06:03:47.313Z,7.33
2023-05-13T06:06:15.950Z,7.73
2023-05-13T06:08:44.279Z,7.87
2023-05-13T06:11:10.954Z,7.13
2023-05-13T06:13:38.532Z,6.83
2023-05-13T06:16:05.832Z,7.00
2023-05-13T06:18:32.440Z,10.60
2023-05-13T06:20:58.981Z,7.27
2023-05-13T06:23:25.491Z,8.07
2023-05-13T06:25:52.034Z,6.63
2023-05-13T06:28:18.623Z,7.43
2023-05-13T06:30:46.000Z,7.13
2023-05-13T06:33:12.920Z,8.73
2023-05-13T06:35:39.573Z,7.13
2023-05-13T06:38:06.920Z,7.00
2023-05-13T06:40:34.525Z,7.40
2023-05-13T06:43:01.399Z,8.97
2023-05-13T06:45:36.698Z,6.73
2023-05-13T06:48:03.481Z,8.47
2023-05-13T06:50:30.412Z,7.40
2023-05-13T06:52:57.893Z,8.07
2023-05-13T06:55:24.455Z,6.47
2023-05-13T06:57:51.489Z,6.33
2023-05-13T07:00:18.250Z,8.03
2023-05-13T07:02:44.811Z,7.03
2023-05-13T07:05:11.998Z,7.30
2023-05-13T07:07:39.018Z,6.57
2023-05-13T07:10:05.865Z,7.00
2023-05-13T07:12:32.700Z,9.47
2023-05-13T07:14:59.338Z,8.10
2023-05-13T07:17:26.126Z,7.37
2023-05-13T07:19:52.789Z,6.17
2023-05-13T07:22:19.386Z,7.10
2023-05-13T07:24:45.926Z,6.13
2023-05-13T07:27:12.550Z,6.10
2023-05-13T07:29:39.090Z,6.63
2023-05-13T07:32:06.162Z,7.17
2023-05-13T07:34:32.714Z,6.53
2023-05-13T07:36:59.303Z,8.43
2023-05-13T07:39:26.721Z,6.50
2023-05-13T07:41:53.613Z,6.77
2023-05-13T07:44:20.185Z,7.17
2023-05-13T07:46:46.782Z,7.53
2023-05-13T07:49:13.314Z,6.30
2023-05-13T07:51:39.922Z,7.60
2023-05-13T07:54:06.470Z,7.53
2023-05-13T07:56:33.584Z,6.23
2023-05-13T07:59:00.157Z,9.00
2023-05-13T08:01:27.236Z,6.97
2023-05-13T08:03:53.941Z,6.13
2023-05-13T08:06:20.801Z,7.47
2023-05-13T08:08:47.342Z,8.50
2023-05-13T08:11:13.876Z,6.10
2023-05-13T08:13:40.363Z,6.40
2023-05-13T08:16:09.901Z,8.70
2023-05-13T08:18:36.637Z,5.70
2023-05-13T08:21:03.397Z,12.90
2023-05-13T08:23:43.347Z,5.80
2023-05-13T08:26:12.008Z,5.47
2023-05-13T08:28:38.600Z,6.33
2023-05-13T08:31:05.176Z,6.43
2023-05-13T08:33:32.073Z,6.53
2023-05-13T08:36:00.006Z,9.87
2023-05-13T08:38:26.696Z,6.57
2023-05-13T08:40:53.287Z,6.37
2023-05-13T08:43:20.190Z,9.83
2023-05-13T08:45:47.683Z,7.70
2023-05-13T08:48:15.136Z,6.70
2023-05-13T08:50:41.888Z,6.47
2023-05-13T08:53:10.033Z,5.57
2023-05-13T08:55:36.573Z,9.53
2023-05-13T08:58:03.156Z,6.30
2023-05-13T09:00:29.741Z,6.40
2023-05-13T09:02:56.336Z,6.53
2023-05-13T09:05:23.193Z,5.83
2023-05-13T09:07:50.039Z,7.60
2023-05-13T09:10:17.604Z,5.47
2023-05-13T09:12:45.356Z,5.20
2023-05-13T09:15:13.238Z,5.73
2023-05-13T09:17:42.473Z,5.10
2023-05-13T09:20:09.601Z,5.33
2023-05-13T09:22:36.254Z,5.10
2023-05-13T09:25:04.171Z,5.10
2023-05-13T09:27:38.247Z,5.63
2023-05-13T09:30:05.147Z,4.87
2023-05-13T09:32:31.940Z,5.80
2023-05-13T09:35:08.196Z,5.43
2023-05-13T09:37:34.729Z,10.40
2023-05-13T09:40:01.295Z,5.27
2023-05-13T09:42:28.063Z,4.90
2023-05-13T09:44:55.206Z,4.87
2023-05-13T09:47:24.271Z,4.60
2023-05-13T09:49:57.702Z,7.40
2023-05-13T09:52:24.303Z,6.50
2023-05-13T09:54:50.830Z,5.63
2023-05-13T09:57:17.402Z,6.13
2023-05-13T09:59:44.064Z,4.07
2023-05-13T10:02:12.967Z,3.80
2023-05-13T10:04:39.795Z,4.40
2023-05-13T10:07:06.723Z,4.20
2023-05-13T10:09:37.411Z,4.90
2023-05-13T10:12:06.768Z,4.10
2023-05-13T10:14:33.489Z,4.67
2023-05-13T10:17:00.297Z,5.63
2023-05-13T10:19:27.034Z,5.50
2023-05-13T10:21:54.275Z,3.90
2023-05-13T10:24:22.210Z,5.87
2023-05-13T10:26:50.042Z,3.90
2023-05-13T10:29:16.844Z,5.30
2023-05-13T10:31:44.819Z,4.13
2023-05-13T10:34:12.384Z,4.53
2023-05-13T10:36:38.905Z,3.83
2023-05-13T10:39:18.204Z,4.20
2023-05-13T10:41:56.753Z,4.90
2023-05-13T10:44:23.681Z,4.30
2023-05-13T10:46:50.382Z,8.00
2023-05-13T10:49:17.055Z,4.30
2023-05-13T10:51:48.338Z,5.67
2023-05-13T10:54:19.165Z,6.43
2023-05-13T10:56:45.851Z,5.27
2023-05-13T10:59:12.549Z,4.20
2023-05-13T11:01:47.160Z,5.30
2023-05-13T11:04:17.836Z,4.27
2023-05-13T11:06:46.368Z,6.10
2023-05-13T11:09:13.991Z,4.07
2023-05-13T11:11:41.076Z,4.50
2023-05-13T11:14:08.997Z,7.03
2023-05-13T11:16:35.961Z,11.57
2023-05-13T11:19:04.094Z,4.63
2023-05-13T11:21:35.792Z,4.77
2023-05-13T11:24:06.072Z,5.57
2023-05-13T11:26:45.218Z,4.30
2023-05-13T11:29:11.793Z,4.17
2023-05-13T11:31:48.892Z,4.10
2023-05-13T11:34:16.867Z,6.83
2023-05-13T11:36:50.531Z,6.97
2023-05-13T11:39:21.414Z,4.50
2023-05-13T11:41:51.571Z,4.63
2023-05-13T11:44:19.205Z,4.37
2023-05-13T11:46:49.297Z,3.97
2023-05-13T11:49:34.689Z,8.07
2023-05-13T11:52:02.168Z,4.20
2023-05-13T11:54:28.813Z,4.57
2023-05-13T11:56:55.339Z,4.67
2023-05-13T11:59:22.663Z,3.93
2023-05-13T12:01:58.693Z,5.30
2023-05-13T12:04:28.350Z,4.57
2023-05-13T12:06:54.994Z,5.57
2023-05-13T12:09:25.321Z,4.27
2023-05-13T12:11:52.751Z,6.73
2023-05-13T12:14:19.842Z,4.30
2023-05-13T12:16:46.943Z,5.10
2023-05-13T12:19:13.486Z,4.53
2023-05-13T12:21:40.117Z,4.57
2023-05-13T12:24:18.843Z,6.43
2023-05-13T12:26:45.712Z,4.57
2023-05-13T12:29:12.248Z,4.80
2023-05-13T12:31:38.807Z,4.60
2023-05-13T12:34:06.535Z,4.57
2023-05-13T12:36:36.571Z,5.23
2023-05-13T12:39:07.320Z,4.80
2023-05-13T12:41:35.084Z,4.60
2023-05-13T12:44:08.790Z,5.00
2023-05-13T12:46:35.703Z,6.13
2023-05-13T12:49:03.164Z,5.00
2023-05-13T12:51:29.943Z,6.30
2023-05-13T12:53:56.780Z,4.50
2023-05-13T12:56:23.843Z,5.17
2023-05-13T12:58:50.957Z,5.00
2023-05-13T13:01:17.858Z,5.53
2023-05-13T13:03:44.893Z,5.23
2023-05-13T13:06:12.088Z,4.33
2023-05-13T13:08:38.698Z,4.30
2023-05-13T13:11:06.152Z,4.33
2023-05-13T13:13:33.168Z,7.30
2023-05-13T13:16:00.139Z,4.77
2023-05-13T13:18:27.000Z,4.20
2023-05-13T13:20:53.723Z,6.43
2023-05-13T13:23:20.277Z,3.63
2023-05-13T13:25:46.934Z,3.77
2023-05-13T13:28:13.503Z,8.33
2023-05-13T13:30:46.183Z,3.30
2023-05-13T13:33:15.958Z,4.23
2023-05-13T13:35:43.237Z,4.07
2023-05-13T13:38:10.003Z,3.40
2023-05-13T13:40:36.912Z,3.47
2023-05-13T13:43:03.864Z,5.70
2023-05-13T13:45:30.467Z,4.53
2023-05-13T13:47:57.565Z,4.07
2023-05-13T13:50:24.441Z,2.83
2023-05-13T13:52:54.137Z,3.27
2023-05-13T13:55:21.680Z,3.27
2023-05-13T13:57:48.465Z,4.13
2023-05-13T14:00:15.727Z,3.23
2023-05-13T14:02:43.497Z,3.13
2023-05-13T14:05:10.919Z,3.43
2023-05-13T14:07:37.706Z,4.07
2023-05-13T14:10:05.156Z,4.30
2023-05-13T14:12:31.959Z,3.43
2023-05-13T14:14:58.846Z,3.53
2023-05-13T14:17:25.517Z,3.97
2023-05-13T14:19:54.202Z,3.63
2023-05-13T14:22:22.214Z,5.37
2023-05-13T14:24:48.855Z,6.60
2023-05-13T14:27:15.453Z,4.63
2023-05-13T14:29:41.981Z,3.80
2023-05-13T14:32:08.612Z,5.77
2023-05-13T14:34:35.136Z,3.33
2023-05-13T14:37:01.641Z,5.57
2023-05-13T14:39:28.249Z,5.23
2023-05-13T14:41:54.877Z,4.32
2023-05-13T14:44:21.470Z,3.40
2023-05-13T14:46:48.046Z,6.40
2023-05-13T14:49:14.673Z,4.23
2023-05-13T14:51:41.240Z,6.55
2023-05-13T14:54:07.775Z,9.10
2023-05-13T14:56:35.177Z,5.97
2023-05-13T14:59:02.482Z,7.67
2023-05-13T15:01:29.094Z,7.63
2023-05-13T15:03:58.077Z,6.07
2023-05-13T15:06:24.680Z,8.70
2023-05-13T15:08:51.218Z,9.63
2023-05-13T15:11:17.925Z,10.37
2023-05-13T15:13:44.424Z,8.10
2023-05-13T15:16:11.584Z,8.30
2023-05-13T15:18:38.133Z,5.90
2023-05-13T15:21:04.681Z,10.97
2023-05-13T15:23:31.345Z,7.67
2023-05-13T15:25:58.187Z,5.17
2023-05-13T15:28:24.926Z,7.33
2023-05-13T15:30:51.516Z,6.77
2023-05-13T15:33:18.110Z,7.53
2023-05-13T15:35:44.703Z,5.80
2023-05-13T15:38:11.434Z,5.70
2023-05-13T15:40:38.407Z,13.40
2023-05-13T15:43:04.983Z,15.60
2023-05-13T15:45:31.571Z,10.80
2023-05-13T15:47:58.180Z,7.50
2023-05-13T15:50:26.050Z,6.53
2023-05-13T15:52:54.664Z,6.83
2023-05-13T15:55:21.620Z,13.20
2023-05-13T15:57:50.051Z,20.70
2023-05-13T16:00:17.417Z,7.90
2023-05-13T16:02:44.300Z,6.70
2023-05-13T16:05:19.146Z,5.67
2023-05-13T16:07:46.043Z,7.97
2023-05-13T16:10:12.561Z,7.43
2023-05-13T16:12:39.206Z,13.87
2023-05-13T16:15:06.643Z,13.83
2023-05-13T16:17:33.366Z,13.00
2023-05-13T16:20:00.294Z,7.73
2023-05-13T16:22:29.029Z,5.70
2023-05-13T16:25:02.941Z,5.87
2023-05-13T16:27:29.480Z,5.50
2023-05-13T16:29:56.328Z,5.90
2023-05-13T16:32:23.001Z,6.03
2023-05-13T16:34:49.581Z,5.47
2023-05-13T16:37:16.314Z,5.13
2023-05-13T16:39:43.293Z,6.63
2023-05-13T16:42:09.947Z,13.40
2023-05-13T16:44:36.536Z,11.30
2023-05-13T16:47:03.354Z,10.17
2023-05-13T16:49:29.938Z,7.77
2023-05-13T16:51:56.507Z,8.83
2023-05-13T16:54:23.230Z,7.13
2023-05-13T16:56:50.517Z,6.47
2023-05-13T16:59:21.219Z,5.67
2023-05-13T17:01:47.958Z,5.53
2023-05-13T17:04:14.595Z,6.93
2023-05-13T17:06:41.132Z,10.47
2023-05-13T17:09:07.743Z,10.53
2023-05-13T17:11:34.253Z,8.20
2023-05-13T17:14:00.767Z,7.47
2023-05-13T17:16:27.368Z,11.53
2023-05-13T17:18:53.999Z,14.60
2023-05-13T17:21:20.638Z,9.83
2023-05-13T17:23:47.106Z,9.37
2023-05-13T17:26:13.698Z,9.97
2023-05-13T17:28:40.349Z,8.47
2023-05-13T17:31:07.228Z,9.00
2023-05-13T17:33:34.189Z,8.50
2023-05-13T17:36:00.783Z,8.27
2023-05-13T17:38:27.306Z,7.70
2023-05-13T17:40:53.960Z,8.50
2023-05-13T17:43:20.473Z,9.27
2023-05-13T17:45:46.993Z,10.97
2023-05-13T17:48:13.958Z,10.63
2023-05-13T17:50:40.531Z,11.27
2023-05-13T17:53:07.079Z,11.33
2023-05-13T17:55:33.614Z,13.60
2023-05-13T17:58:00.199Z,13.03
2023-05-13T18:00:26.863Z,21.50
2023-05-13T18:02:53.604Z,18.53
2023-05-13T18:05:23.299Z,14.43
2023-05-13T18:07:50.040Z,11.80
2023-05-13T18:10:16.556Z,11.30
2023-05-13T18:12:43.067Z,10.43
2023-05-13T18:15:09.954Z,10.27
2023-05-13T18:17:36.507Z,8.93
2023-05-13T18:20:03.172Z,9.70
2023-05-13T18:22:29.747Z,9.73
2023-05-13T18:24:56.339Z,19.07
2023-05-13T18:27:22.967Z,21.60
2023-05-13T18:29:49.483Z,22.83
2023-05-13T18:32:16.106Z,18.17
2023-05-13T18:34:42.664Z,14.33
2023-05-13T18:37:09.185Z,11.87
2023-05-13T18:39:35.795Z,9.30
2023-05-13T18:42:02.303Z,8.80
2023-05-13T18:44:29.593Z,12.53
2023-05-13T18:46:56.105Z,10.17
2023-05-13T18:49:28.203Z,9.57
2023-05-13T18:51:54.938Z,9.80
2023-05-13T18:54:21.475Z,10.70
2023-05-13T18:56:48.391Z,15.37
2023-05-13T18:59:14.883Z,12.50
2023-05-13T19:01:42.295Z,11.63
2023-05-13T19:04:09.085Z,20.10
2023-05-13T19:06:37.978Z,22.47
2023-05-13T19:09:04.819Z,31.00
2023-05-13T19:11:31.656Z,22.90
2023-05-13T19:13:58.413Z,19.80
2023-05-13T19:16:25.597Z,16.70
2023-05-13T19:18:54.099Z,23.50
2023-05-13T19:21:23.250Z,37.63
2023-05-13T19:23:50.404Z,40.70
2023-05-13T19:26:17.151Z,30.80
2023-05-13T19:28:44.281Z,25.30
2023-05-13T19:31:10.864Z,19.73
2023-05-13T19:33:37.398Z,11.93
2023-05-13T19:36:04.417Z,11.93
2023-05-13T19:38:30.961Z,18.90
2023-05-13T19:40:57.493Z,24.60
2023-05-13T19:43:24.628Z,24.37
2023-05-13T19:45:51.430Z,19.67
2023-05-13T19:48:17.939Z,16.40
2023-05-13T19:50:44.517Z,18.13
2023-05-13T19:53:11.498Z,29.07
2023-05-13T19:55:38.095Z,30.00
2023-05-13T19:58:04.618Z,61.70
2023-05-13T20:00:31.257Z,61.53
2023-05-13T20:02:57.825Z,44.08
2023-05-13T20:05:24.413Z,31.40
2023-05-13T20:07:50.980Z,39.37
2023-05-13T20:10:17.519Z,32.53
2023-05-13T20:12:44.546Z,42.83
2023-05-13T20:15:11.209Z,28.20
2023-05-13T20:17:37.986Z,23.63
2023-05-13T20:20:05.199Z,21.43
2023-05-13T20:22:32.131Z,15.60
2023-05-13T20:24:59.008Z,10.67
2023-05-13T20:27:25.666Z,27.20
2023-05-13T20:29:52.382Z,24.23
2023-05-13T20:32:24.414Z,24.23
2023-05-13T20:34:52.232Z,27.80
2023-05-13T20:37:19.740Z,25.53
2023-05-13T20:39:47.774Z,32.17
2023-05-13T20:42:14.296Z,26.77
2023-05-13T20:44:40.818Z,38.63
2023-05-13T20:47:07.824Z,36.73
2023-05-13T20:49:34.492Z,39.30
2023-05-13T20:52:04.856Z,35.50
2023-05-13T20:54:32.343Z,38.63
2023-05-13T20:57:00.552Z,40.83
2023-05-13T20:59:27.053Z,29.00
2023-05-13T21:01:53.642Z,23.67
2023-05-13T21:04:20.298Z,17.13
2023-05-13T21:06:47.437Z,14.80
2023-05-13T21:09:13.972Z,14.23
2023-05-13T21:11:40.501Z,14.70
2023-05-13T21:14:07.032Z,14.50
2023-05-13T21:16:33.976Z,15.90
2023-05-13T21:19:00.659Z,15.03
2023-05-13T21:21:27.174Z,15.60
2023-05-13T21:23:53.656Z,17.40
2023-05-13T21:26:21.760Z,17.87
2023-05-13T21:28:48.255Z,18.57
2023-05-13T21:31:14.855Z,26.60
2023-05-13T21:33:41.541Z,25.20
2023-05-13T21:36:08.908Z,23.97
2023-05-13T21:38:35.394Z,18.30
2023-05-13T21:41:02.032Z,16.80
2023-05-13T21:43:28.528Z,18.07
2023-05-13T21:45:55.094Z,16.10
2023-05-13T21:48:21.665Z,15.03
2023-05-13T21:50:48.199Z,16.00
2023-05-13T21:53:14.774Z,15.60
2023-05-13T21:55:41.332Z,14.60
2023-05-13T21:58:07.904Z,14.83
2023-05-13T22:00:34.581Z,14.83
2023-05-13T22:03:01.654Z,13.37
2023-05-13T22:05:28.424Z,13.20
2023-05-13T22:07:55.211Z,12.57
2023-05-13T22:10:22.121Z,12.97
2023-05-13T22:12:48.826Z,13.67
2023-05-13T22:15:15.710Z,14.13
2023-05-13T22:17:42.364Z,14.30
2023-05-13T22:20:09.090Z,16.80
2023-05-13T22:22:35.648Z,15.30
2023-05-13T22:25:03.342Z,15.03
2023-05-13T22:27:30.024Z,15.13
2023-05-13T22:29:56.871Z,15.53
2023-05-13T22:32:23.539Z,14.60
2023-05-13T22:34:50.042Z,13.23
2023-05-13T22:37:16.637Z,13.23
2023-05-13T22:39:44.593Z,13.27
2023-05-13T22:42:11.145Z,13.47
2023-05-13T22:44:37.848Z,13.70
2023-05-13T22:47:04.456Z,12.50
2023-05-13T22:49:31.016Z,13.00
2023-05-13T22:51:57.573Z,11.87
2023-05-13T22:54:24.199Z,11.83
2023-05-13T22:56:50.762Z,12.77
2023-05-13T22:59:17.345Z,11.60
2023-05-13T23:01:44.243Z,13.50
2023-05-13T23:04:10.840Z,12.87
2023-05-13T23:06:37.410Z,13.67
2023-05-13T23:09:04.040Z,17.90
2023-05-13T23:11:30.775Z,16.50
2023-05-13T23:13:57.290Z,15.03
2023-05-13T23:16:23.901Z,14.33
2023-05-13T23:18:50.502Z,12.83
2023-05-13T23:21:17.051Z,14.03
2023-05-13T23:23:43.727Z,13.73
2023-05-13T23:26:10.325Z,14.07
2023-05-13T23:28:36.851Z,12.57
2023-05-13T23:31:03.474Z,12.80
2023-05-13T23:33:30.061Z,13.83
2023-05-13T23:35:56.601Z,14.73
2023-05-13T23:38:23.229Z,13.80
2023-05-13T23:40:49.819Z,13.13
2023-05-13T23:43:16.377Z,13.60
2023-05-13T23:45:43.041Z,14.07
2023-05-13T23:48:09.985Z,12.90
2023-05-13T23:50:36.913Z,12.63
2023-05-13T23:53:03.516Z,13.50
2023-05-13T23:55:30.051Z,14.10
2023-05-13T23:57:56.831Z,13.10
